Marion, Kentucky
Current Conditions -  °F | °C
As of 1:55 AM on Friday 31 Oct 2014 (Local Time) from K5M9 Reporting Station
Overcast Overcast  
Wind Chill: 49°   Ceiling: 5000
Heat Index: 49°   Visibility: 10mi
Dew Point: 43°   Wind: 3mph
Humidity: 78%   Direction: 20°NNE
Pressure: 30.01"   Gusts: NA
Location:  37.33°N, 88.08°W
Report Text: K5M9 310655Z AUTO 02003KT 10SM SCT044 BKN050 OVC085 10/06 A3001 RMK AO2 T00970060
Loading
Personal Weather Stations






























Interactive Weather Map
Tropical Storm Tracking
New forecast layout! Learn more

10-Day Weather Forecast

Advertisements
Track Severe Weather on mobile